sensor_id;sensor_type;location;lat;lon;timestamp;pressure;altitude;pressure_sealevel;temperature;humidity
13235;BME280;6683;48.506;9.050;2022-12-18T00:01:52;99299.47;;;-6.43;65.62
13235;BME280;6683;48.506;9.050;2022-12-18T00:04:55;99297.75;;;-6.43;65.88
13235;BME280;6683;48.506;9.050;2022-12-18T00:07:57;99293.47;;;-6.44;65.71
13235;BME280;6683;48.506;9.050;2022-12-18T00:11:06;99297.78;;;-6.44;65.72
13235;BME280;6683;48.506;9.050;2022-12-18T00:14:09;99304.69;;;-6.46;66.26
13235;BME280;6683;48.506;9.050;2022-12-18T00:17:13;99304.81;;;-6.49;65.59
13235;BME280;6683;48.506;9.050;2022-12-18T00:20:15;99299.97;;;-6.57;65.97
13235;BME280;6683;48.506;9.050;2022-12-18T00:23:22;99296.63;;;-6.61;65.75
13235;BME280;6683;48.506;9.050;2022-12-18T00:26:28;99292.50;;;-6.65;65.69
13235;BME280;6683;48.506;9.050;2022-12-18T00:29:31;99292.63;;;-6.68;65.81
13235;BME280;6683;48.506;9.050;2022-12-18T00:32:34;99299.66;;;-6.73;65.22
13235;BME280;6683;48.506;9.050;2022-12-18T00:35:36;99305.84;;;-6.78;65.38
13235;BME280;6683;48.506;9.050;2022-12-18T00:38:39;99314.53;;;-6.82;65.53
13235;BME280;6683;48.506;9.050;2022-12-18T00:41:43;99311.97;;;-6.82;65.87
13235;BME280;6683;48.506;9.050;2022-12-18T00:45:03;99295.78;;;-6.84;65.58
13235;BME280;6683;48.506;9.050;2022-12-18T00:48:06;99300.16;;;-6.88;65.34
13235;BME280;6683;48.506;9.050;2022-12-18T00:51:10;99304.50;;;-6.90;65.25
13235;BME280;6683;48.506;9.050;2022-12-18T00:54:13;99300.31;;;-6.92;65.68
13235;BME280;6683;48.506;9.050;2022-12-18T00:57:16;99297.81;;;-6.94;65.66
13235;BME280;6683;48.506;9.050;2022-12-18T01:00:19;99307.22;;;-6.94;65.31
13235;BME280;6683;48.506;9.050;2022-12-18T01:03:22;99313.19;;;-6.94;65.60
13235;BME280;6683;48.506;9.050;2022-12-18T01:06:25;99312.31;;;-6.93;65.99
13235;BME280;6683;48.506;9.050;2022-12-18T01:09:27;99314.81;;;-6.91;65.61
13235;BME280;6683;48.506;9.050;2022-12-18T01:12:31;99318.25;;;-6.91;65.26
13235;BME280;6683;48.506;9.050;2022-12-18T01:15:33;99314.81;;;-6.91;65.04
13235;BME280;6683;48.506;9.050;2022-12-18T01:18:36;99310.56;;;-6.92;65.52
13235;BME280;6683;48.506;9.050;2022-12-18T01:21:38;99314.03;;;-6.93;65.18
13235;BME280;6683;48.506;9.050;2022-12-18T01:24:41;99316.69;;;-6.96;65.12
13235;BME280;6683;48.506;9.050;2022-12-18T01:27:45;99315.91;;;-6.98;65.36
13235;BME280;6683;48.506;9.050;2022-12-18T01:30:48;99315.97;;;-7.00;64.99
13235;BME280;6683;48.506;9.050;2022-12-18T01:33:51;99313.47;;;-7.01;65.54
13235;BME280;6683;48.506;9.050;2022-12-18T01:36:53;99325.50;;;-7.03;65.07
13235;BME280;6683;48.506;9.050;2022-12-18T01:39:56;99315.25;;;-7.03;65.72
13235;BME280;6683;48.506;9.050;2022-12-18T01:42:59;99322.16;;;-7.05;65.77
13235;BME280;6683;48.506;9.050;2022-12-18T01:46:02;99327.28;;;-7.05;65.50
13235;BME280;6683;48.506;9.050;2022-12-18T01:49:05;99331.56;;;-7.06;65.45
13235;BME280;6683;48.506;9.050;2022-12-18T01:52:07;99322.34;;;-7.11;65.47
13235;BME280;6683;48.506;9.050;2022-12-18T01:55:11;99320.66;;;-7.12;65.07
13235;BME280;6683;48.506;9.050;2022-12-18T01:58:16;99310.47;;;-7.14;65.26
13235;BME280;6683;48.506;9.050;2022-12-18T02:01:21;99312.28;;;-7.17;65.36
13235;BME280;6683;48.506;9.050;2022-12-18T02:04:26;99309.81;;;-7.20;64.93
13235;BME280;6683;48.506;9.050;2022-12-18T02:07:37;99315.81;;;-7.21;65.37
13235;BME280;6683;48.506;9.050;2022-12-18T02:10:51;99320.94;;;-7.21;65.13
13235;BME280;6683;48.506;9.050;2022-12-18T02:14:09;99307.31;;;-7.22;65.51
13235;BME280;6683;48.506;9.050;2022-12-18T02:17:21;99306.53;;;-7.24;65.43
13235;BME280;6683;48.506;9.050;2022-12-18T02:20:30;99320.28;;;-7.26;65.15
13235;BME280;6683;48.506;9.050;2022-12-18T02:23:49;99323.72;;;-7.27;65.73
13235;BME280;6683;48.506;9.050;2022-12-18T02:26:59;99317.72;;;-7.26;65.51
13235;BME280;6683;48.506;9.050;2022-12-18T02:30:05;99322.91;;;-7.28;65.14
13235;BME280;6683;48.506;9.050;2022-12-18T02:33:09;99324.72;;;-7.32;65.27
13235;BME280;6683;48.506;9.050;2022-12-18T02:36:13;99328.13;;;-7.31;65.70
13235;BME280;6683;48.506;9.050;2022-12-18T02:39:17;99331.53;;;-7.30;65.54
13235;BME280;6683;48.506;9.050;2022-12-18T02:42:24;99340.94;;;-7.31;65.50
13235;BME280;6683;48.506;9.050;2022-12-18T02:45:27;99335.03;;;-7.33;65.00
13235;BME280;6683;48.506;9.050;2022-12-18T02:48:33;99343.56;;;-7.32;65.32
13235;BME280;6683;48.506;9.050;2022-12-18T02:51:47;99337.53;;;-7.32;65.03
13235;BME280;6683;48.506;9.050;2022-12-18T02:55:00;99334.09;;;-7.30;65.39
13235;BME280;6683;48.506;9.050;2022-12-18T02:58:14;99330.63;;;-7.29;65.09
13235;BME280;6683;48.506;9.050;2022-12-18T03:01:24;99334.03;;;-7.29;64.92
13235;BME280;6683;48.506;9.050;2022-12-18T03:04:37;99336.59;;;-7.29;65.04
13235;BME280;6683;48.506;9.050;2022-12-18T03:07:46;99328.97;;;-7.30;65.16
13235;BME280;6683;48.506;9.050;2022-12-18T03:10:57;99321.28;;;-7.32;65.22
13235;BME280;6683;48.506;9.050;2022-12-18T03:14:04;99327.28;;;-7.32;65.20
13235;BME280;6683;48.506;9.050;2022-12-18T03:17:13;99329.75;;;-7.28;65.36
13235;BME280;6683;48.506;9.050;2022-12-18T03:20:21;99333.09;;;-7.26;65.39
13235;BME280;6683;48.506;9.050;2022-12-18T03:23:28;99336.53;;;-7.27;65.43
13235;BME280;6683;48.506;9.050;2022-12-18T03:26:32;99334.75;;;-7.24;65.08
13235;BME280;6683;48.506;9.050;2022-12-18T03:29:42;99340.75;;;-7.25;65.01
13235;BME280;6683;48.506;9.050;2022-12-18T03:32:50;99337.38;;;-7.27;65.10
13235;BME280;6683;48.506;9.050;2022-12-18T03:35:53;99331.53;;;-7.30;65.08
13235;BME280;6683;48.506;9.050;2022-12-18T03:38:56;99334.09;;;-7.30;65.30
13235;BME280;6683;48.506;9.050;2022-12-18T03:42:05;99335.09;;;-7.36;65.03
13235;BME280;6683;48.506;9.050;2022-12-18T03:45:16;99339.50;;;-7.40;65.22
13235;BME280;6683;48.506;9.050;2022-12-18T03:48:28;99336.06;;;-7.39;65.09
13235;BME280;6683;48.506;9.050;2022-12-18T03:51:39;99337.72;;;-7.38;65.22
13235;BME280;6683;48.506;9.050;2022-12-18T03:54:43;99339.31;;;-7.34;65.57
13235;BME280;6683;48.506;9.050;2022-12-18T03:57:48;99332.34;;;-7.30;65.42
13235;BME280;6683;48.506;9.050;2022-12-18T04:00:54;99320.28;;;-7.26;65.10
13235;BME280;6683;48.506;9.050;2022-12-18T04:04:00;99327.13;;;-7.27;65.38
13235;BME280;6683;48.506;9.050;2022-12-18T04:07:05;99323.78;;;-7.29;64.99
13235;BME280;6683;48.506;9.050;2022-12-18T04:10:12;99323.84;;;-7.30;65.39
13235;BME280;6683;48.506;9.050;2022-12-18T04:13:22;99332.50;;;-7.35;65.00
13235;BME280;6683;48.506;9.050;2022-12-18T04:16:26;99335.16;;;-7.38;65.00
13235;BME280;6683;48.506;9.050;2022-12-18T04:19:29;99332.78;;;-7.44;64.81
13235;BME280;6683;48.506;9.050;2022-12-18T04:22:31;99337.19;;;-7.47;65.02
13235;BME280;6683;48.506;9.050;2022-12-18T04:25:33;99339.88;;;-7.52;65.13
13235;BME280;6683;48.506;9.050;2022-12-18T04:28:36;99337.25;;;-7.50;65.28
13235;BME280;6683;48.506;9.050;2022-12-18T04:31:40;99336.22;;;-7.45;65.43
13235;BME280;6683;48.506;9.050;2022-12-18T04:34:42;99351.53;;;-7.42;65.07
13235;BME280;6683;48.506;9.050;2022-12-18T04:37:45;99354.88;;;-7.40;65.07
13235;BME280;6683;48.506;9.050;2022-12-18T04:40:47;99349.75;;;-7.40;64.95
13235;BME280;6683;48.506;9.050;2022-12-18T04:43:49;99352.44;;;-7.43;65.05
13235;BME280;6683;48.506;9.050;2022-12-18T04:46:53;99348.25;;;-7.47;65.02
13235;BME280;6683;48.506;9.050;2022-12-18T04:49:56;99349.16;;;-7.48;65.20
13235;BME280;6683;48.506;9.050;2022-12-18T04:52:59;99344.88;;;-7.47;65.15
13235;BME280;6683;48.506;9.050;2022-12-18T04:56:07;99340.69;;;-7.50;64.77
13235;BME280;6683;48.506;9.050;2022-12-18T04:59:09;99316.09;;;-7.57;64.42
13235;BME280;6683;48.506;9.050;2022-12-18T05:02:13;99317.22;;;-7.65;64.46
13235;BME280;6683;48.506;9.050;2022-12-18T05:05:15;99325.06;;;-7.70;64.45
13235;BME280;6683;48.506;9.050;2022-12-18T05:08:18;99328.59;;;-7.74;64.87
13235;BME280;6683;48.506;9.050;2022-12-18T05:11:20;99336.28;;;-7.74;64.89
13235;BME280;6683;48.506;9.050;2022-12-18T05:14:23;99331.16;;;-7.74;65.04
13235;BME280;6683;48.506;9.050;2022-12-18T05:17:26;99334.53;;;-7.72;64.50
13235;BME280;6683;48.506;9.050;2022-12-18T05:20:29;99337.97;;;-7.73;64.53
13235;BME280;6683;48.506;9.050;2022-12-18T05:23:31;99338.03;;;-7.76;64.24
13235;BME280;6683;48.506;9.050;2022-12-18T05:26:34;99330.59;;;-7.83;64.29
13235;BME280;6683;48.506;9.050;2022-12-18T05:29:36;99327.47;;;-7.93;63.88
13235;BME280;6683;48.506;9.050;2022-12-18T05:32:40;99331.81;;;-7.95;64.31
13235;BME280;6683;48.506;9.050;2022-12-18T05:35:43;99332.59;;;-7.93;64.53
13235;BME280;6683;48.506;9.050;2022-12-18T05:38:45;99334.38;;;-7.95;64.41
13235;BME280;6683;48.506;9.050;2022-12-18T05:41:47;99342.97;;;-7.97;64.29
13235;BME280;6683;48.506;9.050;2022-12-18T05:44:50;99344.81;;;-8.01;64.03
13235;BME280;6683;48.506;9.050;2022-12-18T05:47:54;99342.25;;;-8.01;64.38
13235;BME280;6683;48.506;9.050;2022-12-18T05:51:04;99336.28;;;-8.01;64.60
13235;BME280;6683;48.506;9.050;2022-12-18T05:54:08;99340.50;;;-8.00;64.07
13235;BME280;6683;48.506;9.050;2022-12-18T05:57:10;99327.75;;;-8.02;64.51
13235;BME280;6683;48.506;9.050;2022-12-18T06:00:14;99335.34;;;-7.99;64.85
13235;BME280;6683;48.506;9.050;2022-12-18T06:03:18;99335.25;;;-7.96;64.94
13235;BME280;6683;48.506;9.050;2022-12-18T06:06:23;99336.16;;;-7.97;64.02
13235;BME280;6683;48.506;9.050;2022-12-18T06:09:26;99336.41;;;-8.06;63.71
13235;BME280;6683;48.506;9.050;2022-12-18T06:12:28;99336.63;;;-8.13;64.23
13235;BME280;6683;48.506;9.050;2022-12-18T06:15:31;99351.22;;;-8.17;63.95
13235;BME280;6683;48.506;9.050;2022-12-18T06:18:35;99359.03;;;-8.22;63.91
13235;BME280;6683;48.506;9.050;2022-12-18T06:21:37;99361.78;;;-8.26;63.62
13235;BME280;6683;48.506;9.050;2022-12-18T06:24:39;99356.78;;;-8.32;63.61
13235;BME280;6683;48.506;9.050;2022-12-18T06:27:41;99361.22;;;-8.37;63.87
13235;BME280;6683;48.506;9.050;2022-12-18T06:30:44;99365.53;;;-8.39;63.76
13235;BME280;6683;48.506;9.050;2022-12-18T06:33:48;99366.38;;;-8.39;64.35
13235;BME280;6683;48.506;9.050;2022-12-18T06:36:50;99375.63;;;-8.33;64.20
13235;BME280;6683;48.506;9.050;2022-12-18T06:39:53;99378.91;;;-8.30;64.24
13235;BME280;6683;48.506;9.050;2022-12-18T06:42:57;99388.97;;;-8.24;64.79
13235;BME280;6683;48.506;9.050;2022-12-18T06:46:00;99394.81;;;-8.19;64.75
13235;BME280;6683;48.506;9.050;2022-12-18T06:49:04;99389.63;;;-8.16;64.59
13235;BME280;6683;48.506;9.050;2022-12-18T06:52:07;99382.72;;;-8.13;64.67
13235;BME280;6683;48.506;9.050;2022-12-18T06:55:10;99391.94;;;-8.08;64.81
13235;BME280;6683;48.506;9.050;2022-12-18T06:58:13;99398.72;;;-8.05;64.44
13235;BME280;6683;48.506;9.050;2022-12-18T07:01:15;99402.94;;;-8.04;64.36
13235;BME280;6683;48.506;9.050;2022-12-18T07:04:19;99405.50;;;-8.04;64.65
13235;BME280;6683;48.506;9.050;2022-12-18T07:07:22;99408.06;;;-8.04;64.15
13235;BME280;6683;48.506;9.050;2022-12-18T07:10:24;99403.06;;;-8.09;64.46
13235;BME280;6683;48.506;9.050;2022-12-18T07:13:26;99418.53;;;-8.12;64.17
13235;BME280;6683;48.506;9.050;2022-12-18T07:16:29;99427.13;;;-8.15;64.15
13235;BME280;6683;48.506;9.050;2022-12-18T07:19:33;99421.16;;;-8.13;64.30
13235;BME280;6683;48.506;9.050;2022-12-18T07:22:35;99425.41;;;-8.14;64.53
13235;BME280;6683;48.506;9.050;2022-12-18T07:25:38;99420.38;;;-8.17;64.58
13235;BME280;6683;48.506;9.050;2022-12-18T07:28:41;99427.25;;;-8.19;64.26
13235;BME280;6683;48.506;9.050;2022-12-18T07:31:44;99424.63;;;-8.18;64.36
13235;BME280;6683;48.506;9.050;2022-12-18T07:34:48;99429.75;;;-8.18;64.17
13235;BME280;6683;48.506;9.050;2022-12-18T07:37:51;99422.06;;;-8.16;64.61
13235;BME280;6683;48.506;9.050;2022-12-18T07:40:53;99420.28;;;-8.14;64.56
13235;BME280;6683;48.506;9.050;2022-12-18T07:43:56;99416.97;;;-8.18;64.24
13235;BME280;6683;48.506;9.050;2022-12-18T07:46:58;99412.91;;;-8.25;63.90
13235;BME280;6683;48.506;9.050;2022-12-18T07:50:02;99423.28;;;-8.29;63.91
13235;BME280;6683;48.506;9.050;2022-12-18T07:53:05;99424.16;;;-8.30;64.14
13235;BME280;6683;48.506;9.050;2022-12-18T07:56:10;99430.91;;;-8.28;64.48
13235;BME280;6683;48.506;9.050;2022-12-18T07:59:12;99424.16;;;-8.30;63.78
13235;BME280;6683;48.506;9.050;2022-12-18T08:02:15;99423.34;;;-8.31;63.93
13235;BME280;6683;48.506;9.050;2022-12-18T08:05:19;99435.19;;;-8.27;64.07
13235;BME280;6683;48.506;9.050;2022-12-18T08:08:24;99425.59;;;-8.22;64.24
13235;BME280;6683;48.506;9.050;2022-12-18T08:11:28;99427.19;;;-8.16;64.14
13235;BME280;6683;48.506;9.050;2022-12-18T08:14:31;99429.63;;;-8.13;64.23
13235;BME280;6683;48.506;9.050;2022-12-18T08:17:33;99435.50;;;-8.08;64.51
13235;BME280;6683;48.506;9.050;2022-12-18T08:20:37;99430.19;;;-8.02;64.40
13235;BME280;6683;48.506;9.050;2022-12-18T08:23:39;99435.16;;;-7.96;64.47
13235;BME280;6683;48.506;9.050;2022-12-18T08:26:42;99438.47;;;-7.92;64.33
13235;BME280;6683;48.506;9.050;2022-12-18T08:29:44;99439.34;;;-7.93;64.12
13235;BME280;6683;48.506;9.050;2022-12-18T08:32:47;99439.34;;;-7.93;63.75
13235;BME280;6683;48.506;9.050;2022-12-18T08:35:51;99441.91;;;-7.93;63.91
13235;BME280;6683;48.506;9.050;2022-12-18T08:38:53;99438.44;;;-7.91;63.79
13235;BME280;6683;48.506;9.050;2022-12-18T08:41:56;99442.72;;;-7.91;63.90
13235;BME280;6683;48.506;9.050;2022-12-18T08:45:16;99440.19;;;-7.93;64.13
13235;BME280;6683;48.506;9.050;2022-12-18T08:48:18;99449.56;;;-7.92;63.88
13235;BME280;6683;48.506;9.050;2022-12-18T08:51:22;99448.75;;;-7.94;64.30
13235;BME280;6683;48.506;9.050;2022-12-18T08:54:25;99431.66;;;-7.93;64.01
13235;BME280;6683;48.506;9.050;2022-12-18T08:57:27;99424.72;;;-7.90;64.06
13235;BME280;6683;48.506;9.050;2022-12-18T09:00:29;99417.78;;;-7.85;64.16
13235;BME280;6683;48.506;9.050;2022-12-18T09:03:32;99417.78;;;-7.85;63.75
13235;BME280;6683;48.506;9.050;2022-12-18T09:06:35;99420.22;;;-7.82;64.43
13235;BME280;6683;48.506;9.050;2022-12-18T09:09:38;99417.53;;;-7.77;64.53
13235;BME280;6683;48.506;9.050;2022-12-18T09:12:41;99424.19;;;-7.70;64.31
13235;BME280;6683;48.506;9.050;2022-12-18T09:15:44;99408.56;;;-7.63;64.48
13235;BME280;6683;48.506;9.050;2022-12-18T09:18:47;99410.03;;;-7.54;64.17
13235;BME280;6683;48.506;9.050;2022-12-18T09:21:51;99411.53;;;-7.47;64.24
13235;BME280;6683;48.506;9.050;2022-12-18T09:24:53;99401.94;;;-7.41;64.52
13235;BME280;6683;48.506;9.050;2022-12-18T09:27:56;99388.03;;;-7.34;64.35
13235;BME280;6683;48.506;9.050;2022-12-18T09:30:58;99385.31;;;-7.29;64.32
13235;BME280;6683;48.506;9.050;2022-12-18T09:34:01;99389.38;;;-7.22;64.67
13235;BME280;6683;48.506;9.050;2022-12-18T09:37:05;99398.47;;;-7.12;64.57
13235;BME280;6683;48.506;9.050;2022-12-18T09:40:13;99396.50;;;-7.04;64.29
13235;BME280;6683;48.506;9.050;2022-12-18T09:43:19;99384.41;;;-7.00;64.08
13235;BME280;6683;48.506;9.050;2022-12-18T09:46:26;99384.31;;;-6.97;64.24
13235;BME280;6683;48.506;9.050;2022-12-18T09:49:32;99389.25;;;-6.91;64.41
13235;BME280;6683;48.506;9.050;2022-12-18T09:52:41;99388.97;;;-6.82;64.72
13235;BME280;6683;48.506;9.050;2022-12-18T09:55:47;99382.72;;;-6.75;64.77
13235;BME280;6683;48.506;9.050;2022-12-18T09:58:57;99385.06;;;-6.69;64.87
13235;BME280;6683;48.506;9.050;2022-12-18T10:02:00;99389.13;;;-6.62;65.02
13235;BME280;6683;48.506;9.050;2022-12-18T10:05:15;99392.34;;;-6.56;65.20
13235;BME280;6683;48.506;9.050;2022-12-18T10:08:26;99393.91;;;-6.27;66.73
13235;BME280;6683;48.506;9.050;2022-12-18T10:11:40;99391.63;;;-5.00;67.13
13235;BME280;6683;48.506;9.050;2022-12-18T10:14:50;99386.69;;;-3.47;64.26
13235;BME280;6683;48.506;9.050;2022-12-18T10:18:02;99373.03;;;-2.10;62.91
13235;BME280;6683;48.506;9.050;2022-12-18T10:21:12;99376.63;;;-0.87;61.77
13235;BME280;6683;48.506;9.050;2022-12-18T10:24:26;99367.19;;;0.28;60.15
13235;BME280;6683;48.506;9.050;2022-12-18T10:27:30;99356.25;;;1.05;59.40
13235;BME280;6683;48.506;9.050;2022-12-18T10:30:33;99349.03;;;1.74;58.68
13235;BME280;6683;48.506;9.050;2022-12-18T10:33:35;99344.50;;;2.52;57.99
13235;BME280;6683;48.506;9.050;2022-12-18T10:36:38;99347.06;;;3.35;56.02
13235;BME280;6683;48.506;9.050;2022-12-18T10:39:42;99349.59;;;4.16;55.03
13235;BME280;6683;48.506;9.050;2022-12-18T10:42:45;99345.78;;;4.64;52.80
13235;BME280;6683;48.506;9.050;2022-12-18T10:46:12;99331.94;;;4.95;53.43
13235;BME280;6683;48.506;9.050;2022-12-18T10:49:25;99339.56;;;5.30;53.10
13235;BME280;6683;48.506;9.050;2022-12-18T10:52:28;99331.13;;;5.47;52.73
13235;BME280;6683;48.506;9.050;2022-12-18T10:55:35;99331.41;;;5.64;53.27
13235;BME280;6683;48.506;9.050;2022-12-18T10:58:39;99331.47;;;5.95;52.60
13235;BME280;6683;48.506;9.050;2022-12-18T11:01:49;99311.38;;;6.25;51.74
13235;BME280;6683;48.506;9.050;2022-12-18T11:04:52;99310.38;;;6.57;52.09
13235;BME280;6683;48.506;9.050;2022-12-18T11:07:56;99295.50;;;6.95;51.12
13235;BME280;6683;48.506;9.050;2022-12-18T11:11:01;99287.34;;;7.37;50.55
13235;BME280;6683;48.506;9.050;2022-12-18T11:14:06;99284.19;;;7.52;49.54
13235;BME280;6683;48.506;9.050;2022-12-18T11:17:19;99281.97;;;7.48;48.32
13235;BME280;6683;48.506;9.050;2022-12-18T11:20:31;99282.50;;;7.51;48.34
13235;BME280;6683;48.506;9.050;2022-12-18T11:23:35;99273.75;;;7.79;48.51
13235;BME280;6683;48.506;9.050;2022-12-18T11:26:40;99266.19;;;8.03;48.00
13235;BME280;6683;48.506;9.050;2022-12-18T11:29:44;99268.34;;;7.90;46.97
13235;BME280;6683;48.506;9.050;2022-12-18T11:32:47;99272.50;;;7.83;48.07
13235;BME280;6683;48.506;9.050;2022-12-18T11:35:53;99264.97;;;7.98;48.42
13235;BME280;6683;48.506;9.050;2022-12-18T11:39:03;99262.66;;;8.22;48.62
13235;BME280;6683;48.506;9.050;2022-12-18T11:42:25;99257.66;;;8.29;49.40
13235;BME280;6683;48.506;9.050;2022-12-18T11:45:34;99254.31;;;8.36;49.68
13235;BME280;6683;48.506;9.050;2022-12-18T11:48:41;99237.78;;;8.44;49.72
13235;BME280;6683;48.506;9.050;2022-12-18T11:51:51;99243.66;;;8.38;50.13
13235;BME280;6683;48.506;9.050;2022-12-18T11:55:00;99243.50;;;8.39;49.75
13235;BME280;6683;48.506;9.050;2022-12-18T11:58:12;99242.53;;;8.40;49.57
13235;BME280;6683;48.506;9.050;2022-12-18T12:01:37;99234.31;;;8.16;49.56
13235;BME280;6683;48.506;9.050;2022-12-18T12:05:00;99241.84;;;7.55;49.01
13235;BME280;6683;48.506;9.050;2022-12-18T12:08:13;99244.53;;;6.69;49.93
13235;BME280;6683;48.506;9.050;2022-12-18T12:11:27;99242.34;;;5.85;51.14
13235;BME280;6683;48.506;9.050;2022-12-18T12:14:48;99241.06;;;4.97;52.26
13235;BME280;6683;48.506;9.050;2022-12-18T12:18:04;99236.19;;;4.18;53.42
13235;BME280;6683;48.506;9.050;2022-12-18T12:21:16;99236.44;;;3.60;54.66
13235;BME280;6683;48.506;9.050;2022-12-18T12:24:33;99234.44;;;3.06;55.73
13235;BME280;6683;48.506;9.050;2022-12-18T12:27:47;99225.50;;;2.63;57.07
13235;BME280;6683;48.506;9.050;2022-12-18T12:31:06;99217.03;;;2.25;57.60
13235;BME280;6683;48.506;9.050;2022-12-18T12:34:18;99229.91;;;1.90;58.06
13235;BME280;6683;48.506;9.050;2022-12-18T12:37:32;99235.06;;;1.54;58.41
13235;BME280;6683;48.506;9.050;2022-12-18T12:40:43;99233.19;;;1.18;59.32
13235;BME280;6683;48.506;9.050;2022-12-18T12:43:47;99232.84;;;0.98;59.89
13235;BME280;6683;48.506;9.050;2022-12-18T12:46:54;99234.88;;;0.80;60.42
13235;BME280;6683;48.506;9.050;2022-12-18T12:50:01;99249.56;;;0.67;60.91
13235;BME280;6683;48.506;9.050;2022-12-18T12:53:07;99240.94;;;0.54;61.73
13235;BME280;6683;48.506;9.050;2022-12-18T12:56:14;99255.50;;;0.42;61.95
13235;BME280;6683;48.506;9.050;2022-12-18T12:59:25;99257.13;;;0.31;61.68
13235;BME280;6683;48.506;9.050;2022-12-18T13:02:39;99257.16;;;0.17;62.24
13235;BME280;6683;48.506;9.050;2022-12-18T13:05:50;99262.81;;;0.09;62.61
13235;BME280;6683;48.506;9.050;2022-12-18T13:08:58;99266.63;;;0.04;62.77
13235;BME280;6683;48.506;9.050;2022-12-18T13:12:03;99272.09;;;-0.01;62.86
13235;BME280;6683;48.506;9.050;2022-12-18T13:15:28;99279.22;;;-0.19;62.54
13235;BME280;6683;48.506;9.050;2022-12-18T13:18:34;99280.09;;;-0.32;62.85
13235;BME280;6683;48.506;9.050;2022-12-18T13:21:36;99269.34;;;-0.40;63.06
13235;BME280;6683;48.506;9.050;2022-12-18T13:24:39;99277.56;;;-0.48;63.45
13235;BME280;6683;48.506;9.050;2022-12-18T13:28:12;99273.78;;;-0.56;63.67
13235;BME280;6683;48.506;9.050;2022-12-18T13:31:57;99269.22;;;-0.67;63.96
13235;BME280;6683;48.506;9.050;2022-12-18T13:35:39;99262.63;;;-0.72;64.34
13235;BME280;6683;48.506;9.050;2022-12-18T13:38:43;99262.81;;;-0.75;63.99
13235;BME280;6683;48.506;9.050;2022-12-18T13:41:48;99255.41;;;-0.82;64.30
13235;BME280;6683;48.506;9.050;2022-12-18T13:44:51;99263.44;;;-0.86;64.53
13235;BME280;6683;48.506;9.050;2022-12-18T13:47:54;99259.38;;;-0.90;64.59
13235;BME280;6683;48.506;9.050;2022-12-18T13:51:04;99255.28;;;-0.94;64.69
13235;BME280;6683;48.506;9.050;2022-12-18T13:54:19;99259.63;;;-0.95;65.27
13235;BME280;6683;48.506;9.050;2022-12-18T13:57:28;99246.84;;;-0.98;65.07
13235;BME280;6683;48.506;9.050;2022-12-18T14:00:31;99247.78;;;-0.99;64.88
13235;BME280;6683;48.506;9.050;2022-12-18T14:03:34;99245.59;;;-1.06;64.56
13235;BME280;6683;48.506;9.050;2022-12-18T14:06:38;99242.63;;;-1.14;65.09
13235;BME280;6683;48.506;9.050;2022-12-18T14:09:43;99250.00;;;-1.22;64.84
13235;BME280;6683;48.506;9.050;2022-12-18T14:12:48;99255.78;;;-1.33;64.32
13235;BME280;6683;48.506;9.050;2022-12-18T14:16:03;99257.25;;;-1.43;64.81
13235;BME280;6683;48.506;9.050;2022-12-18T14:19:08;99249.97;;;-1.52;64.50
13235;BME280;6683;48.506;9.050;2022-12-18T14:22:18;99248.66;;;-1.59;64.64
13235;BME280;6683;48.506;9.050;2022-12-18T14:25:24;99252.25;;;-1.62;64.93
13235;BME280;6683;48.506;9.050;2022-12-18T14:28:27;99243.00;;;-1.66;65.38
13235;BME280;6683;48.506;9.050;2022-12-18T14:31:31;99244.84;;;-1.68;65.14
13235;BME280;6683;48.506;9.050;2022-12-18T14:34:33;99245.81;;;-1.70;65.28
13235;BME280;6683;48.506;9.050;2022-12-18T14:37:37;99246.06;;;-1.75;65.43
13235;BME280;6683;48.506;9.050;2022-12-18T14:40:39;99250.69;;;-1.80;65.75
13235;BME280;6683;48.506;9.050;2022-12-18T14:43:44;99257.75;;;-1.83;65.54
13235;BME280;6683;48.506;9.050;2022-12-18T14:46:48;99250.25;;;-1.88;65.20
13235;BME280;6683;48.506;9.050;2022-12-18T14:49:51;99244.59;;;-1.94;65.32
13235;BME280;6683;48.506;9.050;2022-12-18T14:52:55;99244.16;;;-2.02;65.66
13235;BME280;6683;48.506;9.050;2022-12-18T14:55:57;99245.41;;;-2.09;65.55
13235;BME280;6683;48.506;9.050;2022-12-18T14:59:02;99255.34;;;-2.17;65.40
13235;BME280;6683;48.506;9.050;2022-12-18T15:02:13;99257.50;;;-2.25;65.36
13235;BME280;6683;48.506;9.050;2022-12-18T15:05:24;99262.97;;;-2.31;65.67
13235;BME280;6683;48.506;9.050;2022-12-18T15:08:37;99259.94;;;-2.39;65.58
13235;BME280;6683;48.506;9.050;2022-12-18T15:11:46;99266.19;;;-2.44;65.79
13235;BME280;6683;48.506;9.050;2022-12-18T15:14:48;99259.84;;;-2.54;65.56
13235;BME280;6683;48.506;9.050;2022-12-18T15:17:57;99262.06;;;-2.63;65.24
13235;BME280;6683;48.506;9.050;2022-12-18T15:21:08;99261.84;;;-2.76;65.14
13235;BME280;6683;48.506;9.050;2022-12-18T15:24:18;99262.44;;;-2.88;65.25
13235;BME280;6683;48.506;9.050;2022-12-18T15:27:30;99256.94;;;-2.97;65.39
13235;BME280;6683;48.506;9.050;2022-12-18T15:30:35;99260.78;;;-3.06;65.93
13235;BME280;6683;48.506;9.050;2022-12-18T15:33:40;99264.53;;;-3.11;65.68
13235;BME280;6683;48.506;9.050;2022-12-18T15:36:43;99262.31;;;-3.19;65.64
13235;BME280;6683;48.506;9.050;2022-12-18T15:39:47;99263.44;;;-3.25;65.62
13235;BME280;6683;48.506;9.050;2022-12-18T15:42:53;99259.56;;;-3.33;65.79
13235;BME280;6683;48.506;9.050;2022-12-18T15:46:15;99265.88;;;-3.39;65.99
13235;BME280;6683;48.506;9.050;2022-12-18T15:49:19;99266.09;;;-3.43;65.77
13235;BME280;6683;48.506;9.050;2022-12-18T15:52:21;99263.72;;;-3.48;65.95
13235;BME280;6683;48.506;9.050;2022-12-18T15:55:28;99264.00;;;-3.54;65.71
13235;BME280;6683;48.506;9.050;2022-12-18T15:58:48;99272.03;;;-3.60;65.99
13235;BME280;6683;48.506;9.050;2022-12-18T16:01:51;99271.28;;;-3.62;65.85
13235;BME280;6683;48.506;9.050;2022-12-18T16:04:54;99275.59;;;-3.62;66.29
13235;BME280;6683;48.506;9.050;2022-12-18T16:07:57;99270.53;;;-3.64;66.26
13235;BME280;6683;48.506;9.050;2022-12-18T16:11:01;99279.16;;;-3.65;66.19
13235;BME280;6683;48.506;9.050;2022-12-18T16:14:07;99283.44;;;-3.64;66.18
13235;BME280;6683;48.506;9.050;2022-12-18T16:17:15;99274.75;;;-3.63;66.11
13235;BME280;6683;48.506;9.050;2022-12-18T16:20:20;99273.88;;;-3.62;66.45
13235;BME280;6683;48.506;9.050;2022-12-18T16:23:23;99268.53;;;-3.59;66.61
13235;BME280;6683;48.506;9.050;2022-12-18T16:26:27;99266.81;;;-3.58;66.26
13235;BME280;6683;48.506;9.050;2022-12-18T16:29:29;99271.00;;;-3.56;66.50
13235;BME280;6683;48.506;9.050;2022-12-18T16:32:32;99273.44;;;-3.53;66.75
13235;BME280;6683;48.506;9.050;2022-12-18T16:35:35;99271.53;;;-3.49;66.54
13235;BME280;6683;48.506;9.050;2022-12-18T16:38:37;99273.16;;;-3.47;66.48
13235;BME280;6683;48.506;9.050;2022-12-18T16:41:42;99271.34;;;-3.45;66.52